Window Rock, AZ

12:41 AM MDT on October 23, 2014 (GMT -0600)
Window Rock | Change Station
CLOSE
Current Station
Airport
Location: Window Rock,
Elevation: 6742 ft
Nearby Weather Stations

Elev 6742 ft 35.66 °N, 109.06 °W | Updated 48 minutes ago

Clear
Clear
42 °F
Feels Like 42 °F
N
0
Wind Variable Wind from North

Today
High -- | Low -- °F
--% Chance of Precip.
Yesterday
High -- | Low -- °F
Precip. -- in
7:30 AM 6:30 PM
Waning Crescent, 0% visible
Pressure 30.07 in
Visibility 10.0 miles
Clouds Clear
Dew Point 30 °F
Humidity 62%
Rainfall 0.00 in
Snow Depth Not available.
UV 0 out of 12
Pollen 2.10 out of 12
Air Quality Not available.
Flu Activity No Activity
METAR KRQE 230553Z AUTO 00000KT 10SM CLR 06/M01 A3028 RMK AO2 SLP182 T00561011 10194 20050 53006 TSNO $

More Conditions Fewer Conditions

Pressure 30.07 in
Visibility 10.0 miles
Clouds Clear
Dew Point 30 °F
Humidity 62%
Rainfall 0.00 in
Snow Depth Not available.
UV 0 out of 12
Pollen 2.10 out of 12
Air Quality Not available.
Flu Activity No Activity
METAR KRQE 230553Z AUTO 00000KT 10SM CLR 06/M01 A3028 RMK AO2 SLP182 T00561011 10194 20050 53006 TSNO $

More Conditions Fewer Conditions

10-Day Weather Forecast

Almanac

Astronomy

Oct. 23, 2014 Rise Set
Actual Time 7:30 AM MDT 6:30 PM MDT
Civil Twilight 7:04 AM MDT 6:56 PM MDT
Nautical Twilight 6:34 AM MDT 7:26 PM MDT
Astronomical Twilight 6:04 AM MDT 7:56 PM MDT
Moon 7:13 AM MDT 6:34 PM MDT
Length of Visible Light 11h 52m
Length of Day
11h 00m
Tomorrow will be 2m 5s shorter.
Waning Crescent, 0% of the Moon is Illuminated
Today
Waning Crescent
Oct 23
New
Oct 30
First Quarter
Nov 6
Full
Nov 14
Last Quarter

Community

WunderPhotos

Upload Photos

1,764,194 photos uploaded!

Nearby

Snow Depth

Station Depth Elevation
Baldy 2 in 9125 ft
Maverick Fork 1 in 9200 ft
Coronado Trail 0 in 8400 ft
Wildcat 0 in 7850 ft
Beaver Head 1 in 7990 ft

Earthquake Activity

City Distance Mag. Time & Date
No recent earthquake activity has been reported nearby.
Minimum magnitude displayed is 2.5.

Coastal Water Temperatures

Place Temperature
No Stations Reporting

Nearby Weather Stations